KQEW

Sangju Rws

Sangju Rws, South Korea
METAR KQEW 211430Z AUTO 29001KT 9999 BKN240 14/13 A3006 RMK A02 TSNO
Observed Flight Rules
May-21 @ 14:30 UTC (23 minutes ago) Visual Flight Rules
Wind Visibility Clouds
290° at 1 knots 10,000+ meters
  • Broken at 24,000' AGL
Temperatures Readings
Current 14°C / 57°F
Dewpoint 13°C / 55°F
Humidity 94%
Altimeter 30.06" Hg
Pressure 1018 hPa
METAR KQEW 211430Z AUTO 29001KT 9999 BKN240 14/13 A3006 RMK A02 TSNO
Observed Flight Rules
May-21 @ 14:30 UTC
(23 minutes ago)
VFR
Wind Visibility
290° at 1 knots 10,000+ meters
Clouds
  • Broken at 24,000' AGL
Temperature Dewpoint
14°C / 57°F 13°C / 55°F
Humidity Altimeter Pressure
94% 30.06" Hg 1018 hPa